Time;durP1;ratioP1;P1;durP2;ratioP2;P2;SDS_P1;SDS_P2;PMS_P1;PMS_P2;Temp;Humidity;BMP_temperature;BMP_pressure;BME280_temperature;BME280_humidity;BME280_pressure;Samples;Min_cycle;Max_cycle;Signal;HPM_P1;HPM_P2
2022/09/02 00:00:37;;;;;;;3.80;2.60;;;11.10;99.90;10.30;101141;;;;552984;255;24167;-78
2022/09/02 00:03:05;;;;;;;4.80;2.40;;;10.90;99.90;10.30;101138;;;;552597;255;24159;-78
2022/09/02 00:05:34;;;;;;;4.20;2.33;;;10.80;99.90;10.20;101139;;;;553169;255;24170;-78
2022/09/02 00:08:03;;;;;;;3.87;2.57;;;10.70;99.90;10.10;101133;;;;562770;251;24159;-77
2022/09/02 00:10:31;;;;;;;3.57;2.80;;;10.70;99.90;10.00;101133;;;;554142;255;24265;-77
2022/09/02 00:12:58;;;;;;;8.10;2.47;;;10.60;99.90;9.90;101129;;;;553860;255;24171;-78
2022/09/02 00:15:26;;;;;;;3.47;2.63;;;10.50;99.90;9.80;101132;;;;553098;255;24150;-78
2022/09/02 00:17:55;;;;;;;2.90;2.30;;;10.40;99.90;9.70;101128;;;;553158;255;24135;-79
2022/09/02 00:20:25;;;;;;;3.53;2.40;;;10.40;99.90;9.70;101132;;;;552735;255;24221;-81
2022/09/02 00:22:50;;;;;;;4.00;2.30;;;10.30;99.90;9.60;101132;;;;552824;255;24158;-79
2022/09/02 00:25:21;;;;;;;4.53;2.70;;;10.20;99.90;9.50;101131;;;;552894;255;26364;-78
2022/09/02 00:27:46;;;;;;;4.47;2.40;;;10.20;99.90;9.40;101134;;;;552697;255;24257;-78
2022/09/02 00:30:14;;;;;;;4.77;2.57;;;10.10;99.90;9.40;101134;;;;552632;255;24151;-79
2022/09/02 00:32:42;;;;;;;2.80;2.50;;;10.00;99.90;9.30;101124;;;;552546;255;24199;-79
2022/09/02 00:35:13;;;;;;;3.10;2.50;;;10.00;99.90;9.30;101131;;;;552930;255;27476;-78
2022/09/02 00:37:38;;;;;;;3.57;2.13;;;9.90;99.90;9.30;101132;;;;561102;252;24175;-80
2022/09/02 00:40:05;;;;;;;2.60;2.10;;;9.90;99.90;9.30;101131;;;;553208;255;24220;-81
2022/09/02 00:42:33;;;;;;;4.10;2.33;;;9.90;99.90;9.30;101127;;;;552955;255;24151;-79
2022/09/02 00:45:04;;;;;;;6.17;2.60;;;10.00;99.90;9.30;101131;;;;552931;255;24157;-79
2022/09/02 00:47:30;;;;;;;5.77;2.43;;;10.00;99.90;9.30;101132;;;;552875;255;24176;-78
2022/09/02 00:50:00;;;;;;;1.80;1.70;;;10.00;99.90;9.30;101132;;;;560972;255;24190;-77
2022/09/02 00:52:37;;;;;;;4.67;2.40;;;10.00;99.90;9.30;101137;;;;552644;255;24207;-77
2022/09/02 00:55:12;;;;;;;6.77;1.97;;;10.00;99.90;9.30;101124;;;;560822;252;24141;-77
2022/09/02 00:57:40;;;;;;;3.83;2.00;;;10.00;99.90;9.40;101125;;;;560807;255;24158;-78
2022/09/02 01:00:17;;;;;;;4.70;2.20;;;10.00;99.90;9.40;101120;;;;552659;255;24187;-77
2022/09/02 01:02:48;;;;;;;5.53;1.83;;;10.00;99.90;9.40;101120;;;;552848;255;24169;-77
2022/09/02 01:05:19;;;;;;;2.97;1.70;;;10.10;99.90;9.50;101127;;;;552782;255;24189;-78
2022/09/02 01:07:47;;;;;;;2.43;1.87;;;10.20;99.90;9.60;101123;;;;552596;251;24193;-78
2022/09/02 01:10:16;;;;;;;2.53;2.00;;;10.30;99.90;9.60;101118;;;;552216;255;24161;-81
2022/09/02 01:12:47;;;;;;;3.77;1.50;;;10.30;99.90;9.70;101124;;;;552645;255;24176;-81
2022/09/02 01:15:14;;;;;;;2.70;1.70;;;10.40;99.90;9.70;101115;;;;553198;255;24228;-81
2022/09/02 01:17:40;;;;;;;5.33;1.90;;;10.40;99.90;9.80;101120;;;;562705;255;24196;-80
2022/09/02 01:20:10;;;;;;;2.93;1.70;;;10.40;99.90;9.80;101123;;;;553147;255;24207;-79
2022/09/02 01:22:36;;;;;;;2.20;1.83;;;10.50;99.90;9.90;101115;;;;562463;253;24233;-80
2022/09/02 01:25:12;;;;;;;3.00;1.50;;;10.50;99.90;9.90;101123;;;;553750;255;24156;-78
2022/09/02 01:27:40;;;;;;;2.83;1.70;;;10.60;99.90;10.00;101154;;;;562050;251;24186;-78
2022/09/02 01:30:09;;;;;;;2.60;1.60;;;10.60;99.90;10.00;101135;;;;553843;255;24162;-80
2022/09/02 01:32:37;;;;;;;1.80;1.07;;;10.60;99.90;10.00;101137;;;;553236;255;24200;-81
2022/09/02 01:35:05;;;;;;;1.57;1.47;;;10.70;99.90;10.00;101135;;;;553271;255;24149;-78
2022/09/02 01:37:33;;;;;;;1.90;1.10;;;10.70;99.90;10.10;101147;;;;553260;255;24165;-81
2022/09/02 01:40:04;;;;;;;1.80;1.20;;;10.70;99.90;10.10;101137;;;;553114;255;24154;-80
2022/09/02 01:42:32;;;;;;;1.53;1.43;;;10.70;99.90;10.10;101139;;;;560799;252;24145;-80
2022/09/02 01:44:57;;;;;;;1.10;1.00;;;10.80;99.90;10.10;101145;;;;552633;255;24165;-80
2022/09/02 01:47:24;;;;;;;2.57;1.20;;;10.80;99.90;10.20;101142;;;;553438;255;24143;-79
2022/09/02 01:49:52;;;;;;;2.90;1.30;;;10.80;99.90;10.10;101141;;;;553055;255;24148;-79
2022/09/02 01:52:23;;;;;;;1.37;1.10;;;10.80;99.90;10.10;101139;;;;562660;255;25228;-77
2022/09/02 01:54:48;;;;;;;1.37;0.97;;;10.80;99.90;10.10;101140;;;;552963;255;24175;-80
2022/09/02 01:57:17;;;;;;;1.93;1.40;;;10.70;99.90;10.00;101144;;;;553034;255;24144;-77
2022/09/02 01:59:46;;;;;;;1.03;1.00;;;10.60;99.90;10.00;101144;;;;552918;255;24174;-76
2022/09/02 02:02:14;;;;;;;1.77;1.17;;;10.60;99.90;9.90;101143;;;;552731;255;24218;-77
2022/09/02 02:04:41;;;;;;;0.87;0.83;;;10.60;99.90;9.80;101138;;;;552270;255;24155;-79
2022/09/02 02:07:09;;;;;;;1.47;1.37;;;10.50;99.90;9.80;101138;;;;552467;255;24168;-80
2022/09/02 02:09:37;;;;;;;0.93;0.93;;;10.50;99.90;9.70;101138;;;;552452;255;24213;-78
2022/09/02 02:12:08;;;;;;;2.07;1.23;;;10.40;99.90;9.60;101139;;;;552506;255;24152;-78
2022/09/02 02:14:33;;;;;;;1.60;1.50;;;10.30;99.90;9.60;101135;;;;552863;255;24264;-77
2022/09/02 02:17:04;;;;;;;6.47;1.67;;;10.20;99.90;9.50;101142;;;;553250;255;24159;-77
2022/09/02 02:19:32;;;;;;;1.33;1.20;;;10.20;99.90;9.50;101129;;;;552861;255;24166;-77
2022/09/02 02:21:57;;;;;;;4.80;1.40;;;10.20;99.90;9.50;101128;;;;552516;255;24191;-77
2022/09/02 02:24:25;;;;;;;0.90;0.90;;;10.20;99.90;9.50;101127;;;;552777;255;24205;-79
2022/09/02 02:26:52;;;;;;;1.73;1.30;;;10.20;99.90;9.60;101132;;;;552761;255;24195;-78
2022/09/02 02:29:21;;;;;;;1.47;1.37;;;10.20;99.90;9.70;101131;;;;552725;255;24193;-80
2022/09/02 02:31:48;;;;;;;1.70;1.40;;;10.30;99.90;9.80;101132;;;;552569;255;24194;-80
2022/09/02 02:34:16;;;;;;;1.27;1.27;;;10.40;99.90;9.90;101126;;;;554017;255;24222;-78
2022/09/02 02:36:47;;;;;;;2.93;1.10;;;10.50;99.90;9.90;101123;;;;553382;255;24223;-80
2022/09/02 02:39:16;;;;;;;1.53;1.43;;;10.60;99.90;10.00;101124;;;;552748;255;24228;-77
2022/09/02 02:41:43;;;;;;;2.63;1.67;;;10.60;99.90;10.00;101125;;;;553533;255;24202;-77
2022/09/02 02:44:11;;;;;;;1.60;1.50;;;10.70;99.90;10.10;101134;;;;553131;255;24173;-78
2022/09/02 02:46:36;;;;;;;2.37;1.83;;;10.70;99.90;10.10;101121;;;;553148;255;24184;-78
2022/09/02 02:49:07;;;;;;;1.40;1.40;;;10.70;99.90;10.10;101128;;;;553404;255;24157;-77
2022/09/02 02:51:32;;;;;;;2.90;1.77;;;10.80;99.90;10.20;101118;;;;552830;255;24242;-78
2022/09/02 02:54:00;;;;;;;1.53;1.43;;;10.80;99.90;10.20;101121;;;;553129;255;24166;-80
2022/09/02 02:56:31;;;;;;;1.57;1.47;;;10.80;99.90;10.20;101120;;;;552884;255;24153;-81
2022/09/02 02:59:00;;;;;;;2.73;1.87;;;10.90;99.90;10.30;101135;;;;552896;255;24172;-77
2022/09/02 03:01:25;;;;;;;4.10;1.30;;;10.90;99.90;10.30;101132;;;;552845;252;24182;-77
2022/09/02 03:03:53;;;;;;;1.50;1.40;;;10.90;99.90;10.30;101119;;;;552882;255;24253;-77
2022/09/02 03:06:21;;;;;;;1.97;1.53;;;11.00;99.90;10.30;101126;;;;553144;255;24166;-76
2022/09/02 03:08:53;;;;;;;2.57;1.20;;;11.00;99.90;10.40;101129;;;;552913;255;25199;-76
2022/09/02 03:11:19;;;;;;;2.00;1.43;;;11.00;99.90;10.40;101129;;;;552641;255;24162;-77
2022/09/02 03:13:45;;;;;;;4.70;1.53;;;11.00;99.90;10.40;101126;;;;552687;255;24170;-77
2022/09/02 03:16:13;;;;;;;1.37;1.10;;;11.10;99.90;10.40;101122;;;;553210;255;24135;-77
2022/09/02 03:18:41;;;;;;;1.80;1.30;;;11.10;99.90;10.40;101126;;;;553182;255;24168;-77
2022/09/02 03:21:09;;;;;;;1.57;1.47;;;11.10;99.90;10.40;101124;;;;553235;255;24132;-77
2022/09/02 03:23:37;;;;;;;2.83;1.90;;;11.10;99.90;10.40;101120;;;;561351;255;25225;-77
2022/09/02 03:26:11;;;;;;;2.43;1.73;;;11.10;99.90;10.40;101123;;;;553159;255;24139;-80
2022/09/02 03:28:41;;;;;;;1.90;1.40;;;11.10;99.90;10.40;101124;;;;562464;255;24182;-76
2022/09/02 03:31:06;;;;;;;1.10;1.10;;;11.10;99.90;10.40;101127;;;;561075;251;24244;-77
2022/09/02 03:33:34;;;;;;;1.80;1.33;;;11.10;99.90;10.40;101126;;;;552984;255;24187;-79
2022/09/02 03:36:06;;;;;;;4.27;1.60;;;11.10;99.90;10.40;101126;;;;552808;255;24212;-78
2022/09/02 03:38:31;;;;;;;2.27;1.40;;;11.10;99.90;10.40;101128;;;;552108;255;24240;-80
2022/09/02 03:41:00;;;;;;;1.13;1.13;;;11.10;99.90;10.40;101130;;;;552799;255;24201;-79
2022/09/02 03:43:28;;;;;;;2.10;1.30;;;11.10;99.90;10.40;101126;;;;552678;255;24154;-78
2022/09/02 03:45:55;;;;;;;1.80;1.70;;;11.10;99.90;10.40;101131;;;;554010;255;24175;-77
2022/09/02 03:48:24;;;;;;;1.50;1.40;;;11.00;99.90;10.40;101133;;;;553762;255;24184;-79
2022/09/02 03:50:53;;;;;;;3.43;1.57;;;11.00;99.90;10.30;101135;;;;553419;255;24166;-76
2022/09/02 03:53:21;;;;;;;1.73;1.00;;;11.00;99.90;10.30;101134;;;;553465;255;24152;-77
2022/09/02 03:55:51;;;;;;;1.57;1.47;;;11.00;99.90;10.30;101127;;;;553182;255;24217;-78
2022/09/02 03:58:17;;;;;;;3.70;1.30;;;11.00;99.90;10.30;101134;;;;552739;255;24176;-78
2022/09/02 04:00:44;;;;;;;1.17;1.00;;;10.90;99.90;10.30;101135;;;;553315;255;24176;-78
2022/09/02 04:03:12;;;;;;;2.37;1.37;;;10.90;99.90;10.30;101140;;;;553260;255;24133;-80
2022/09/02 04:05:40;;;;;;;4.10;1.40;;;10.90;99.90;10.30;101139;;;;553089;255;25194;-79
2022/09/02 04:08:08;;;;;;;4.27;1.37;;;10.90;99.90;10.30;101137;;;;552721;255;24209;-79
2022/09/02 04:10:37;;;;;;;1.70;1.10;;;10.90;99.90;10.30;101141;;;;553110;255;24143;-79
2022/09/02 04:13:06;;;;;;;2.50;1.30;;;10.90;99.90;10.30;101142;;;;552957;255;24154;-79
2022/09/02 04:15:33;;;;;;;1.17;1.07;;;10.90;99.90;10.30;101144;;;;553262;255;24190;-78
2022/09/02 04:18:01;;;;;;;3.40;1.10;;;10.90;99.90;10.30;101142;;;;553396;255;24143;-79
2022/09/02 04:20:29;;;;;;;0.73;0.73;;;10.90;99.90;10.20;101131;;;;553274;255;24171;-79
2022/09/02 04:22:57;;;;;;;2.17;1.23;;;10.80;99.90;10.20;101135;;;;553158;255;24146;-78
2022/09/02 04:25:26;;;;;;;2.07;1.30;;;10.80;99.90;10.10;101134;;;;553167;255;24159;-79
2022/09/02 04:27:53;;;;;;;1.43;0.90;;;10.80;99.90;10.10;101136;;;;553080;255;24186;-79
2022/09/02 04:30:23;;;;;;;2.73;1.10;;;10.70;99.90;10.10;101148;;;;553161;255;24197;-81
2022/09/02 04:32:50;;;;;;;3.80;1.00;;;10.60;99.90;10.00;101144;;;;552694;255;24256;-80
2022/09/02 04:35:18;;;;;;;1.00;1.00;;;10.60;99.90;10.00;101148;;;;552854;255;24196;-80
2022/09/02 04:37:47;;;;;;;1.10;1.00;;;10.60;99.90;9.90;101142;;;;552230;255;24304;-79
2022/09/02 04:40:18;;;;;;;1.07;1.00;;;10.60;99.90;9.90;101146;;;;552381;255;24190;-80
2022/09/02 04:42:42;;;;;;;1.30;1.10;;;10.50;99.90;9.90;101155;;;;560469;255;24195;-78
2022/09/02 04:45:11;;;;;;;2.00;1.20;;;10.50;99.90;9.90;101149;;;;552442;255;24180;-78
2022/09/02 04:47:39;;;;;;;1.93;1.10;;;10.50;99.90;9.90;101146;;;;552725;255;24147;-78
2022/09/02 04:50:10;;;;;;;1.20;1.10;;;10.50;99.90;10.00;101152;;;;552684;255;24166;-77
2022/09/02 04:52:35;;;;;;;2.27;1.20;;;10.60;99.90;10.00;101155;;;;552765;255;24231;-78
2022/09/02 04:55:06;;;;;;;6.47;1.13;;;10.60;99.90;10.10;101148;;;;553128;255;24178;-77
2022/09/02 04:57:31;;;;;;;1.40;0.93;;;10.70;99.90;10.20;101148;;;;563019;253;24154;-77
2022/09/02 05:00:00;;;;;;;1.40;1.30;;;10.80;99.90;10.20;101143;;;;554163;255;25231;-79
2022/09/02 05:02:26;;;;;;;2.27;1.13;;;10.80;99.90;10.40;101152;;;;553998;255;24152;-77
2022/09/02 05:04:55;;;;;;;1.70;1.17;;;11.00;99.90;10.50;101146;;;;554007;255;24171;-79
2022/09/02 05:07:24;;;;;;;1.47;1.10;;;11.10;99.90;10.60;101152;;;;553739;255;24161;-78
2022/09/02 05:09:57;;;;;;;2.30;1.10;;;11.10;99.90;10.90;101151;;;;553791;255;24182;-78
2022/09/02 05:12:28;;;;;;;1.20;1.10;;;11.40;99.90;11.20;101152;;;;553905;255;24194;-78
2022/09/02 05:14:59;;;;;;;1.30;1.20;;;11.70;99.90;11.30;101159;;;;553336;255;24234;-77
2022/09/02 05:17:26;;;;;;;3.80;1.00;;;11.80;99.90;11.30;101149;;;;552622;255;24166;-78
2022/09/02 05:19:55;;;;;;;3.23;1.50;;;11.80;99.90;12.00;101152;;;;552882;255;24163;-77
2022/09/02 05:22:21;;;;;;;7.07;0.90;;;12.30;99.90;14.40;101154;;;;552690;255;24219;-77
2022/09/02 05:24:48;;;;;;;1.47;0.83;;;14.40;99.90;16.90;101161;;;;552957;255;24174;-78
2022/09/02 05:27:16;;;;;;;1.93;1.33;;;16.90;99.90;19.20;101169;;;;553124;255;24163;-78
2022/09/02 05:29:44;;;;;;;1.30;1.20;;;19.30;99.90;21.20;101171;;;;552974;255;24139;-78
2022/09/02 05:32:13;;;;;;;1.70;1.50;;;23.20;99.90;22.90;101172;;;;552962;255;23174;-77
2022/09/02 05:34:42;;;;;;;3.60;1.30;;;24.80;99.90;24.50;101171;;;;552738;255;24169;-77
2022/09/02 05:37:10;;;;;;;5.23;1.50;;;24.70;99.90;25.70;101168;;;;553076;255;24157;-78
2022/09/02 05:39:37;;;;;;;2.50;1.37;;;26.00;94.80;26.80;101174;;;;553159;251;23149;-78
2022/09/02 05:42:05;;;;;;;3.23;1.60;;;27.20;87.90;27.60;101163;;;;553083;255;23209;-78
2022/09/02 05:44:33;;;;;;;8.60;1.90;;;27.90;78.20;28.50;101174;;;;553352;255;23192;-77
2022/09/02 05:47:04;;;;;;;6.17;1.70;;;28.80;72.60;29.50;101177;;;;553143;255;24176;-77
2022/09/02 05:49:29;;;;;;;6.05;1.90;;;29.90;66.40;30.30;101177;;;;560554;255;23268;-77
2022/09/02 05:51:57;;;;;;;6.37;1.50;;;30.70;62.80;31.00;101177;;;;552271;255;23193;-77
2022/09/02 05:54:31;;;;;;;4.18;1.37;;;31.40;59.50;31.80;101181;;;;552936;255;23224;-78
2022/09/02 05:56:59;;;;;;;3.40;1.40;;;32.20;57.30;32.60;101185;;;;552931;255;23168;-78
2022/09/02 05:59:26;;;;;;;4.82;1.40;;;33.00;55.00;33.50;101186;;;;552360;255;23219;-77
2022/09/02 06:01:58;;;;;;;1.98;1.25;;;33.80;53.70;34.30;101189;;;;552800;255;23219;-78
2022/09/02 06:04:22;;;;;;;4.18;1.50;;;34.60;51.50;35.10;101196;;;;552547;255;23240;-78
2022/09/02 06:06:53;;;;;;;3.25;1.90;;;35.50;50.30;36.00;101196;;;;561103;255;23160;-79
2022/09/02 06:09:18;;;;;;;3.30;1.58;;;36.30;48.90;36.60;101198;;;;553987;255;23160;-78
2022/09/02 06:11:48;;;;;;;5.55;1.27;;;37.00;47.10;37.20;101201;;;;552876;255;23211;-79
2022/09/02 06:14:20;;;;;;;2.37;1.33;;;37.50;45.80;37.80;101204;;;;553623;255;24223;-78
2022/09/02 06:16:49;;;;;;;1.55;1.20;;;38.20;45.10;38.50;101203;;;;553279;255;23216;-80
2022/09/02 06:19:16;;;;;;;3.10;1.10;;;38.80;43.80;38.80;101205;;;;553593;255;23161;-79
2022/09/02 06:21:46;;;;;;;3.65;1.55;;;39.10;43.20;39.20;101205;;;;553554;255;23161;-80
2022/09/02 06:24:11;;;;;;;9.15;1.52;;;39.50;42.20;39.80;101208;;;;553327;255;24180;-78
2022/09/02 06:26:39;;;;;;;3.22;1.12;;;40.10;42.10;40.40;101210;;;;553565;255;23146;-79
2022/09/02 06:29:07;;;;;;;7.28;1.42;;;40.80;41.20;40.60;101201;;;;553374;255;23161;-79
2022/09/02 06:31:39;;;;;;;9.30;1.60;;;41.00;40.30;40.40;101205;;;;553239;255;23161;-79
2022/09/02 06:34:03;;;;;;;7.57;1.50;;;40.90;40.00;38.50;101215;;;;552738;255;23174;-79
2022/09/02 06:36:31;;;;;;;2.72;1.40;;;39.50;40.50;36.20;101224;;;;561622;252;24225;-81
2022/09/02 06:39:02;;;;;;;3.95;1.40;;;37.50;41.70;34.90;101221;;;;553448;255;23162;-78
2022/09/02 06:41:27;;;;;;;3.62;1.27;;;35.90;43.70;34.00;101220;;;;553560;255;23218;-78
2022/09/02 06:43:55;;;;;;;2.90;1.00;;;34.70;45.00;33.70;101227;;;;553302;255;23233;-80
2022/09/02 06:46:23;;;;;;;2.37;1.08;;;34.10;46.40;35.50;101226;;;;553136;255;23173;-81
2022/09/02 06:48:56;;;;;;;1.30;1.20;;;35.10;46.00;37.70;101235;;;;552861;255;23232;-80
2022/09/02 06:51:27;;;;;;;2.22;1.30;;;37.00;44.20;39.50;101242;;;;552372;255;23171;-78
2022/09/02 06:53:55;;;;;;;3.03;1.17;;;38.90;42.50;40.70;101246;;;;552293;255;23204;-78
2022/09/02 06:56:23;;;;;;;1.60;1.50;;;40.20;41.00;41.80;101239;;;;552378;255;24208;-80
2022/09/02 06:58:51;;;;;;;4.90;1.55;;;41.50;39.90;42.30;101245;;;;553019;255;23182;-79
2022/09/02 07:01:21;;;;;;;8.13;1.65;;;42.30;38.40;41.30;101246;;;;552840;255;23192;-80
2022/09/02 07:06:36;;;;;;;2.78;1.60;;;40.50;39.20;37.20;101259;;;;552861;255;23161;-78
2022/09/02 07:09:05;;;;;;;2.08;1.60;;;38.50;40.60;35.10;101254;;;;552738;255;24212;-78
2022/09/02 07:11:37;;;;;;;2.50;1.50;;;36.40;42.80;34.50;101253;;;;552953;255;23197;-77
2022/09/02 07:14:02;;;;;;;1.65;1.55;;;34.70;45.20;34.50;101255;;;;552410;255;23228;-77
2022/09/02 07:16:30;;;;;;;2.17;1.50;;;34.20;45.90;34.00;101252;;;;553191;255;23178;-76
2022/09/02 07:19:00;;;;;;;5.45;1.20;;;33.60;46.60;33.10;101252;;;;553226;254;24150;-79
2022/09/02 07:21:30;;;;;;;9.45;1.62;;;33.50;46.50;32.10;101252;;;;553916;255;23204;-77
2022/09/02 07:23:55;;;;;;;2.12;1.00;;;32.70;47.80;30.50;101255;;;;561782;255;23162;-79
2022/09/02 07:26:26;;;;;;;2.50;0.95;;;31.40;48.80;29.30;101257;;;;553998;255;23159;-78
2022/09/02 07:28:54;;;;;;;1.48;0.85;;;30.10;50.50;27.90;101253;;;;553725;255;26334;-78
2022/09/02 07:31:22;;;;;;;0.50;0.50;;;28.80;52.30;26.80;101256;;;;561911;255;24257;-77
2022/09/02 07:33:49;;;;;;;0.97;0.97;;;27.50;54.30;25.50;101256;;;;561477;252;23271;-78
2022/09/02 07:36:20;;;;;;;2.00;0.80;;;26.30;55.90;24.70;101255;;;;553581;255;23204;-79
2022/09/02 07:38:45;;;;;;;1.90;1.00;;;25.30;57.90;24.20;101248;;;;553273;255;24175;-77
2022/09/02 07:41:13;;;;;;;1.53;1.10;;;24.70;59.50;23.70;101251;;;;553504;255;23195;-80
2022/09/02 07:43:41;;;;;;;10.80;1.90;;;24.20;61.20;23.30;101249;;;;553999;255;24120;-79
2022/09/02 07:46:12;;;;;;;2.70;1.08;;;23.70;62.90;23.00;101256;;;;548822;255;35663;-82
2022/09/02 07:48:37;;;;;;;1.20;0.80;;;23.40;64.50;22.70;101253;;;;553332;255;24201;-80
2022/09/02 07:51:07;;;;;;;1.10;1.10;;;22.90;67.20;22.60;101254;;;;553621;255;24148;-83
2022/09/02 07:53:34;;;;;;;0.63;0.63;;;22.90;67.20;22.40;101254;;;;552750;255;24156;-77
2022/09/02 07:56:01;;;;;;;0.83;0.57;;;22.80;68.70;22.20;101255;;;;561335;254;24178;-81
2022/09/02 07:58:29;;;;;;;0.53;0.53;;;22.60;69.20;22.10;101257;;;;552572;255;24185;-77
2022/09/02 08:00:57;;;;;;;0.67;0.40;;;22.50;69.90;22.00;101250;;;;552401;255;24131;-79
2022/09/02 08:03:25;;;;;;;0.97;0.60;;;22.50;71.00;22.10;101252;;;;553023;255;23204;-82
2022/09/02 08:05:53;;;;;;;5.97;1.10;;;22.50;71.20;22.10;101254;;;;552934;251;23159;-78
2022/09/02 08:08:25;;;;;;;2.30;0.70;;;22.70;72.00;22.40;101253;;;;552993;255;24257;-77
2022/09/02 08:10:50;;;;;;;0.77;0.70;;;23.10;71.10;22.70;101256;;;;552532;255;23243;-78
2022/09/02 08:13:18;;;;;;;1.70;0.50;;;23.00;71.00;23.10;101259;;;;560995;255;24176;-78
2022/09/02 08:15:46;;;;;;;4.83;0.90;;;23.40;71.00;23.60;101262;;;;552802;255;24154;-79
2022/09/02 08:18:14;;;;;;;1.93;0.83;;;23.90;70.50;24.30;101263;;;;552697;255;24145;-77
2022/09/02 08:20:42;;;;;;;0.53;0.53;;;24.60;70.00;25.00;101268;;;;553114;255;24144;-78
2022/09/02 08:23:13;;;;;;;2.23;0.67;;;25.30;67.00;25.70;101264;;;;553231;255;24145;-78
2022/09/02 08:25:41;;;;;;;0.53;0.53;;;26.00;65.80;26.30;101265;;;;552840;255;23204;-79
2022/09/02 08:28:06;;;;;;;1.10;0.60;;;26.60;64.20;26.90;101264;;;;553060;255;23178;-78
2022/09/02 08:30:34;;;;;;;0.83;0.50;;;27.20;62.30;27.40;101266;;;;561803;254;24217;-78
2022/09/02 08:33:02;;;;;;;0.40;0.40;;;27.80;60.10;27.70;101269;;;;554081;255;23155;-79
2022/09/02 08:35:30;;;;;;;0.83;0.50;;;28.20;58.90;28.20;101262;;;;553626;255;25250;-78
2022/09/02 08:37:58;;;;;;;0.77;0.50;;;28.60;58.00;28.80;101268;;;;552887;255;23179;-78
2022/09/02 08:40:25;;;;;;;0.40;0.40;;;29.20;57.40;29.50;101267;;;;553375;255;23164;-77
2022/09/02 08:42:57;;;;;;;3.33;0.73;;;29.80;56.50;30.20;101266;;;;553420;255;23173;-79
2022/09/02 08:45:27;;;;;;;0.28;0.28;;;30.50;55.10;30.70;101262;;;;552636;255;23222;-81
2022/09/02 08:48:16;;;;;;;0.90;0.52;;;31.10;53.40;31.30;101265;;;;553574;255;23167;-78
2022/09/02 08:50:44;;;;;;;3.80;0.50;;;31.70;51.70;31.90;101264;;;;553340;255;23184;-79
2022/09/02 08:53:50;;;;;;;0.70;0.47;;;32.40;50.20;33.00;101264;;;;553151;255;23157;-77
2022/09/02 08:56:20;;;;;;;1.10;0.47;;;33.30;48.40;33.80;101262;;;;553409;255;23177;-77
2022/09/02 08:58:48;;;;;;;1.12;0.50;;;34.80;44.90;34.00;101270;;;;552521;255;23160;-80
2022/09/02 09:01:41;;;;;;;0.40;0.40;;;34.60;44.90;33.50;101269;;;;553166;255;23195;-80
2022/09/02 09:04:24;;;;;;;0.40;0.40;;;34.60;44.90;33.00;101263;;;;553253;255;23188;-77
2022/09/02 09:06:55;;;;;;;1.00;1.00;;;34.10;45.30;32.70;101264;;;;561241;255;23162;-78
2022/09/02 09:09:32;;;;;;;0.75;0.30;;;33.70;45.00;32.70;101268;;;;552438;251;24156;-77
2022/09/02 09:12:21;;;;;;;1.17;0.50;;;33.50;43.90;32.40;101271;;;;552192;255;23187;-78
2022/09/02 09:15:10;;;;;;;0.95;0.50;;;33.40;43.80;32.10;101270;;;;553252;255;23146;-77
2022/09/02 09:17:47;;;;;;;0.47;0.40;;;33.30;44.80;31.70;101262;;;;553676;255;23184;-80
2022/09/02 09:20:16;;;;;;;0.35;0.35;;;32.70;44.90;31.60;101267;;;;553414;255;24153;-80
2022/09/02 09:22:46;;;;;;;2.22;0.35;;;32.30;46.10;31.40;101260;;;;553227;255;23195;-81
2022/09/02 09:25:14;;;;;;;1.40;0.35;;;32.30;46.10;31.30;101260;;;;553490;255;23156;-82
2022/09/02 09:27:44;;;;;;;0.62;0.60;;;32.10;46.60;31.60;101262;;;;553578;255;23176;-82
2022/09/02 09:30:13;;;;;;;4.12;0.88;;;32.20;46.20;31.80;101265;;;;553444;255;24182;-78
2022/09/02 09:32:38;;;;;;;7.32;1.48;;;32.60;45.30;31.80;101269;;;;552614;255;23204;-78
2022/09/02 09:35:14;;;;;;;0.85;0.50;;;32.70;46.00;31.90;101264;;;;552988;255;24207;-79
2022/09/02 09:37:46;;;;;;;0.20;0.20;;;32.80;46.60;31.60;101261;;;;553320;255;23193;-82
2022/09/02 09:40:22;;;;;;;5.90;0.47;;;32.40;46.80;31.40;101261;;;;553540;255;23194;-80
2022/09/02 09:43:05;;;;;;;0.50;0.32;;;32.10;46.80;31.50;101259;;;;554377;254;23218;-82
2022/09/02 09:45:35;;;;;;;5.28;1.35;;;32.10;47.20;30.90;101254;;;;554682;255;24226;-78
2022/09/02 09:48:22;;;;;;;0.98;0.98;;;31.80;46.50;29.90;101262;;;;554241;255;23167;-80
2022/09/02 09:50:55;;;;;;;1.58;0.75;;;29.90;49.40;28.60;101259;;;;562564;251;24205;-78
2022/09/02 09:53:26;;;;;;;3.30;0.80;;;29.80;49.30;28.20;101259;;;;553397;255;24137;-78
2022/09/02 09:56:06;;;;;;;1.83;0.67;;;29.20;50.30;27.40;101260;;;;554241;255;23164;-82
2022/09/02 09:58:39;;;;;;;1.20;0.97;;;28.40;51.20;26.60;101255;;;;561887;255;24185;-78
2022/09/02 10:01:22;;;;;;;2.30;1.03;;;27.70;52.70;26.00;101256;;;;561520;255;23179;-78
2022/09/02 10:03:59;;;;;;;2.03;1.00;;;27.00;53.80;25.30;101256;;;;553406;255;23158;-76
2022/09/02 10:06:24;;;;;;;1.70;1.03;;;26.30;54.80;24.60;101253;;;;552947;255;23211;-81
2022/09/02 10:08:52;;;;;;;0.83;0.77;;;25.50;56.20;24.30;101249;;;;552242;255;24157;-78
2022/09/02 10:11:23;;;;;;;1.40;0.70;;;25.00;57.40;23.90;101249;;;;550398;255;24151;-78
2022/09/02 10:13:51;;;;;;;0.73;0.43;;;24.60;58.20;23.50;101253;;;;553281;255;24174;-78
2022/09/02 10:16:46;;;;;;;2.73;1.13;;;24.10;58.70;23.00;101253;;;;553471;255;24145;-78
2022/09/02 10:19:36;;;;;;;0.83;0.80;;;23.10;62.40;22.20;101257;;;;562151;255;23174;-77
2022/09/02 10:22:36;;;;;;;1.47;1.20;;;23.00;62.30;21.70;101251;;;;553646;255;24139;-80
2022/09/02 10:25:41;;;;;;;1.57;1.43;;;22.50;64.20;21.50;101244;;;;553877;255;23198;-81
2022/09/02 10:28:20;;;;;;;1.57;0.70;;;22.10;66.10;21.70;101249;;;;561627;255;24180;-79
2022/09/02 10:31:24;;;;;;;0.70;0.67;;;22.20;65.80;22.10;101248;;;;553657;255;24132;-78
2022/09/02 10:34:11;;;;;;;1.30;0.80;;;22.50;65.80;22.30;101254;;;;561868;252;24196;-77
2022/09/02 10:37:06;;;;;;;0.70;0.70;;;22.80;65.30;22.30;101254;;;;553019;255;24179;-78
2022/09/02 10:40:08;;;;;;;0.63;0.63;;;22.80;63.60;22.10;101261;;;;553610;255;24137;-80
2022/09/02 10:42:50;;;;;;;3.73;0.70;;;22.70;63.50;22.10;101250;;;;553707;255;23206;-80
2022/09/02 10:45:30;;;;;;;0.53;0.53;;;22.70;63.80;22.00;101246;;;;553304;255;24140;-81
2022/09/02 10:48:01;;;;;;;0.53;0.53;;;22.60;64.80;21.90;101251;;;;553059;251;24140;-78
2022/09/02 10:50:41;;;;;;;1.13;0.57;;;22.40;65.10;21.70;101246;;;;553262;255;24202;-80
2022/09/02 10:53:39;;;;;;;0.60;0.60;;;22.30;66.20;21.50;101256;;;;541267;255;23171;-80
2022/09/02 10:56:08;;;;;;;0.33;0.33;;;21.80;68.00;21.30;101247;;;;554792;255;24177;-79
2022/09/02 10:58:47;;;;;;;2.13;1.20;;;21.80;68.00;21.20;101250;;;;553475;255;23230;-80
2022/09/02 11:01:33;;;;;;;0.60;0.60;;;21.60;69.80;21.10;101254;;;;554004;255;23174;-78
2022/09/02 11:04:13;;;;;;;0.53;0.50;;;21.50;70.20;21.10;101251;;;;553996;255;24167;-78
2022/09/02 11:06:42;;;;;;;0.50;0.50;;;21.60;68.70;21.10;101248;;;;553381;255;24166;-77
2022/09/02 11:09:13;;;;;;;1.70;0.40;;;21.70;68.80;21.20;101256;;;;553618;255;23164;-77
2022/09/02 11:11:44;;;;;;;1.27;0.63;;;21.80;69.10;21.30;101249;;;;546722;255;24216;-78
2022/09/02 11:14:26;;;;;;;1.87;0.50;;;21.80;69.00;21.20;101247;;;;553009;255;24141;-79
2022/09/02 11:16:57;;;;;;;1.20;0.63;;;21.70;70.20;20.80;101242;;;;552611;255;23173;-77
2022/09/02 11:19:43;;;;;;;1.03;0.60;;;21.40;72.00;20.40;101241;;;;553050;255;24146;-77
2022/09/02 11:22:22;;;;;;;1.20;0.30;;;21.10;74.90;19.90;101240;;;;553626;255;24235;-78
2022/09/02 11:25:11;;;;;;;1.87;0.70;;;20.60;74.30;19.60;101240;;;;548737;255;35516;-77
2022/09/02 11:27:39;;;;;;;1.30;0.60;;;20.20;75.50;19.40;101240;;;;561827;255;24135;-80
2022/09/02 11:30:23;;;;;;;2.63;0.60;;;20.00;73.50;19.30;101239;;;;553159;255;24151;-77